createdAt,value
2022-07-29T00:01:03.796Z,101887.66
2022-07-29T00:03:31.038Z,101886.44
2022-07-29T00:05:58.349Z,101879.94
2022-07-29T00:08:25.406Z,101873.91
2022-07-29T00:10:52.491Z,101877.31
2022-07-29T00:13:32.059Z,101871.63
2022-07-29T00:16:04.922Z,101873.69
2022-07-29T00:18:32.835Z,101866.72
2022-07-29T00:21:00.124Z,101864.00
2022-07-29T00:23:27.211Z,101863.03
2022-07-29T00:25:54.208Z,101870.34
2022-07-29T00:28:21.269Z,101863.25
2022-07-29T00:30:48.297Z,101861.38
2022-07-29T00:33:15.227Z,101858.00
2022-07-29T00:35:44.958Z,101850.81
2022-07-29T00:38:19.354Z,101848.72
2022-07-29T00:40:47.960Z,101845.84
2022-07-29T00:43:15.849Z,101837.53
2022-07-29T00:45:43.416Z,101839.19
2022-07-29T00:48:11.412Z,101842.97
2022-07-29T00:50:38.988Z,101833.84
2022-07-29T00:53:09.016Z,101827.94
2022-07-29T00:55:36.697Z,101828.84
2022-07-29T00:58:04.470Z,101831.78
2022-07-29T01:00:32.018Z,101834.34
2022-07-29T01:02:59.409Z,101833.44
2022-07-29T01:05:48.113Z,101835.47
2022-07-29T01:08:17.551Z,101816.69
2022-07-29T01:10:45.610Z,101821.88
2022-07-29T01:13:13.615Z,101829.59
2022-07-29T01:15:49.388Z,101824.44
2022-07-29T01:18:33.271Z,101824.28
2022-07-29T01:21:43.948Z,101821.94
2022-07-29T01:24:59.455Z,101820.50
2022-07-29T01:28:10.287Z,101813.72
2022-07-29T01:30:40.245Z,101813.72
2022-07-29T01:33:36.572Z,101823.09
2022-07-29T01:36:14.295Z,101816.66
2022-07-29T01:38:45.683Z,101817.06
2022-07-29T01:41:18.630Z,101815.00
2022-07-29T01:44:16.813Z,101813.38
2022-07-29T01:46:55.595Z,101818.22
2022-07-29T01:49:29.292Z,101824.25
2022-07-29T01:52:04.724Z,101822.19
2022-07-29T01:54:43.841Z,101816.81
2022-07-29T01:57:18.542Z,101822.31
2022-07-29T01:59:48.666Z,101818.94
2022-07-29T02:02:17.888Z,101822.25
2022-07-29T02:04:49.449Z,101811.84
2022-07-29T02:07:21.329Z,101811.84
2022-07-29T02:09:51.714Z,101816.06
2022-07-29T02:12:21.138Z,101816.44
2022-07-29T02:14:54.902Z,101821.03
2022-07-29T02:17:34.929Z,101822.31
2022-07-29T02:20:07.082Z,101816.06
2022-07-29T02:22:39.383Z,101816.38
2022-07-29T02:25:14.153Z,101816.81
2022-07-29T02:27:43.218Z,101808.06
2022-07-29T02:30:11.672Z,101805.81
2022-07-29T02:32:41.148Z,101802.25
2022-07-29T02:35:10.586Z,101806.47
2022-07-29T02:37:38.794Z,101805.19
2022-07-29T02:40:10.589Z,101800.22
2022-07-29T02:42:39.736Z,101803.97
2022-07-29T02:45:09.008Z,101805.63
2022-07-29T02:47:44.806Z,101801.09
2022-07-29T02:50:36.767Z,101800.66
2022-07-29T02:53:21.396Z,101798.38
2022-07-29T02:55:57.749Z,101798.38
2022-07-29T02:58:39.454Z,101801.09
2022-07-29T03:01:22.657Z,101806.53
2022-07-29T03:03:54.161Z,101803.03
2022-07-29T03:06:31.149Z,101799.88
2022-07-29T03:09:12.760Z,101799.88
2022-07-29T03:11:49.443Z,101796.72
2022-07-29T03:14:20.353Z,101800.47
2022-07-29T03:16:48.709Z,101795.28
2022-07-29T03:19:16.610Z,101789.00
2022-07-29T03:21:43.656Z,101796.53
2022-07-29T03:24:11.171Z,101788.25
2022-07-29T03:26:38.507Z,101789.09
2022-07-29T03:29:05.513Z,101786.13
2022-07-29T03:31:33.442Z,101776.81
2022-07-29T03:34:00.714Z,101783.91
2022-07-29T03:36:27.703Z,101782.38
2022-07-29T03:38:55.558Z,101773.03
2022-07-29T03:41:24.204Z,101779.03
2022-07-29T03:43:53.044Z,101770.31
2022-07-29T03:46:24.418Z,101769.84
2022-07-29T03:49:01.272Z,101771.50
2022-07-29T03:51:33.104Z,101765.34
2022-07-29T03:54:07.876Z,101762.84
2022-07-29T03:56:48.328Z,101770.75
2022-07-29T03:59:18.289Z,101766.81
2022-07-29T04:01:46.115Z,101764.72
2022-07-29T04:04:13.725Z,101765.38
2022-07-29T04:06:48.337Z,101775.56
2022-07-29T04:09:16.146Z,101771.22
2022-07-29T04:12:02.265Z,101762.44
2022-07-29T04:14:32.342Z,101762.00
2022-07-29T04:16:59.912Z,101764.56
2022-07-29T04:19:26.827Z,101762.44
2022-07-29T04:21:54.012Z,101761.63
2022-07-29T04:24:21.036Z,101764.13
2022-07-29T04:26:48.763Z,101760.00
2022-07-29T04:29:15.887Z,101765.59
2022-07-29T04:31:44.669Z,101761.22
2022-07-29T04:34:13.832Z,101760.63
2022-07-29T04:36:41.027Z,101760.63
2022-07-29T04:39:08.124Z,101762.91
2022-07-29T04:41:35.076Z,101765.00
2022-07-29T04:44:06.873Z,101764.16
2022-07-29T04:46:35.233Z,101763.34
2022-07-29T04:49:03.798Z,101767.94
2022-07-29T04:51:30.812Z,101763.50
2022-07-29T04:53:58.056Z,101768.53
2022-07-29T04:56:24.980Z,101769.16
2022-07-29T04:58:52.187Z,101765.44
2022-07-29T05:01:19.492Z,101762.94
2022-07-29T05:03:46.607Z,101768.75
2022-07-29T05:06:13.676Z,101763.16
2022-07-29T05:08:41.884Z,101759.19
2022-07-29T05:11:12.147Z,101765.44
2022-07-29T05:13:46.006Z,101764.59
2022-07-29T05:16:14.813Z,101776.72
2022-07-29T05:18:42.954Z,101763.56
2022-07-29T05:21:09.896Z,101761.69
2022-07-29T05:23:36.851Z,101762.50
2022-07-29T05:26:03.821Z,101768.16
2022-07-29T05:28:35.141Z,101772.91
2022-07-29T05:31:02.798Z,101781.66
2022-07-29T05:33:36.133Z,101785.81
2022-07-29T05:36:08.054Z,101783.91
2022-07-29T05:38:37.101Z,101787.44
2022-07-29T05:41:05.995Z,101798.03
2022-07-29T05:43:33.199Z,101794.00
2022-07-29T05:46:00.524Z,101791.66
2022-07-29T05:48:27.911Z,101785.13
2022-07-29T05:50:55.493Z,101782.97
2022-07-29T05:53:22.979Z,101787.88
2022-07-29T05:55:50.431Z,101790.00
2022-07-29T05:58:17.590Z,101793.09
2022-07-29T06:00:45.450Z,101791.31
2022-07-29T06:03:13.257Z,101795.22
2022-07-29T06:05:40.243Z,101798.66
2022-07-29T06:08:08.095Z,101792.59
2022-07-29T06:10:38.488Z,101791.84
2022-07-29T06:13:05.536Z,101797.09
2022-07-29T06:15:32.722Z,101792.84
2022-07-29T06:18:01.583Z,101795.25
2022-07-29T06:20:33.062Z,101790.72
2022-07-29T06:23:00.839Z,101800.13
2022-07-29T06:25:31.349Z,101814.38
2022-07-29T06:27:58.830Z,101819.53
2022-07-29T06:30:25.879Z,101832.94
2022-07-29T06:32:53.010Z,101827.19
2022-07-29T06:35:41.201Z,101829.06
2022-07-29T06:38:25.099Z,101831.06
2022-07-29T06:41:06.773Z,101831.88
2022-07-29T06:43:50.581Z,101829.09
2022-07-29T06:46:21.696Z,101826.63
2022-07-29T06:48:49.278Z,101817.56
2022-07-29T06:51:21.685Z,101822.66
2022-07-29T06:53:58.310Z,101830.94
2022-07-29T06:56:28.959Z,101836.38
2022-07-29T06:58:55.889Z,101842.28
2022-07-29T07:01:22.914Z,101832.34
2022-07-29T07:03:49.952Z,101823.53
2022-07-29T07:06:17.248Z,101819.41
2022-07-29T07:08:44.609Z,101827.69
2022-07-29T07:11:12.185Z,101834.16
2022-07-29T07:13:39.098Z,101834.22
2022-07-29T07:16:06.432Z,101825.38
2022-07-29T07:18:33.452Z,101830.34
2022-07-29T07:21:00.471Z,101830.22
2022-07-29T07:23:27.511Z,101829.19
2022-07-29T07:25:54.535Z,101826.81
2022-07-29T07:28:24.641Z,101825.63
2022-07-29T07:30:53.065Z,101829.66
2022-07-29T07:33:20.438Z,101825.84
2022-07-29T07:35:48.001Z,101813.94
2022-07-29T07:38:15.000Z,101812.91
2022-07-29T07:40:42.470Z,101811.03
2022-07-29T07:43:09.435Z,101806.00
2022-07-29T07:45:38.124Z,101804.94
2022-07-29T07:48:06.004Z,101807.69
2022-07-29T07:50:33.288Z,101804.13
2022-07-29T07:53:02.615Z,101805.78
2022-07-29T07:55:47.286Z,101804.44
2022-07-29T07:58:16.663Z,101802.56
2022-07-29T08:00:43.753Z,101796.22
2022-07-29T08:03:16.706Z,101794.84
2022-07-29T08:05:44.891Z,101791.56
2022-07-29T08:08:11.850Z,101790.44
2022-07-29T08:10:54.250Z,101796.47
2022-07-29T08:13:24.489Z,101790.09
2022-07-29T08:15:58.747Z,101800.81
2022-07-29T08:18:27.042Z,101794.19
2022-07-29T08:20:54.317Z,101793.56
2022-07-29T08:23:21.568Z,101796.91
2022-07-29T08:25:50.047Z,101792.59
2022-07-29T08:28:18.527Z,101801.16
2022-07-29T08:30:45.836Z,101808.44
2022-07-29T08:33:12.885Z,101797.50
2022-07-29T08:35:40.442Z,101793.38
2022-07-29T08:38:07.369Z,101797.47
2022-07-29T08:40:34.331Z,101795.81
2022-07-29T08:43:09.822Z,101801.72
2022-07-29T08:45:49.384Z,101800.44
2022-07-29T08:48:20.067Z,101810.13
2022-07-29T08:50:49.113Z,101798.91
2022-07-29T08:53:18.504Z,101803.09
2022-07-29T08:55:48.805Z,101802.00
2022-07-29T08:58:16.977Z,101799.69
2022-07-29T09:00:58.114Z,101802.28
2022-07-29T09:03:31.649Z,101803.34
2022-07-29T09:06:00.503Z,101800.84
2022-07-29T09:08:28.019Z,101801.69
2022-07-29T09:10:59.388Z,101800.09
2022-07-29T09:13:27.388Z,101801.44
2022-07-29T09:15:54.872Z,101796.50
2022-07-29T09:18:43.702Z,101798.09
2022-07-29T09:21:32.203Z,101799.81
2022-07-29T09:24:05.995Z,101799.00
2022-07-29T09:26:36.388Z,101799.78
2022-07-29T09:29:23.947Z,101796.53
2022-07-29T09:31:54.302Z,101803.63
2022-07-29T09:34:27.757Z,101804.25
2022-07-29T09:36:56.746Z,101798.31
2022-07-29T09:39:46.518Z,101799.81
2022-07-29T09:42:14.335Z,101794.59
2022-07-29T09:44:49.179Z,101792.41
2022-07-29T09:47:18.236Z,101794.06
2022-07-29T09:49:52.895Z,101789.56
2022-07-29T09:52:20.396Z,101784.66
2022-07-29T09:54:47.844Z,101791.63
2022-07-29T09:57:30.871Z,101786.00
2022-07-29T10:00:08.039Z,101789.66
2022-07-29T10:02:37.576Z,101789.47
2022-07-29T10:05:17.884Z,101797.00
2022-07-29T10:08:03.260Z,101793.16
2022-07-29T10:10:40.139Z,101800.78
2022-07-29T10:13:15.796Z,101795.75
2022-07-29T10:15:46.732Z,101789.78
2022-07-29T10:18:18.241Z,101793.81
2022-07-29T10:20:46.034Z,101796.25
2022-07-29T10:23:13.556Z,101797.91
2022-07-29T10:25:45.949Z,101801.81
2022-07-29T10:28:16.432Z,101796.72
2022-07-29T10:30:45.455Z,101792.75
2022-07-29T10:33:44.491Z,101805.09
2022-07-29T10:36:36.507Z,101795.84
2022-07-29T10:39:22.729Z,101792.00
2022-07-29T10:42:07.980Z,101796.50
2022-07-29T10:44:36.876Z,101799.44
2022-07-29T10:47:04.580Z,101804.47
2022-07-29T10:49:31.771Z,101794.78
2022-07-29T10:52:10.747Z,101789.44
2022-07-29T10:54:42.270Z,101789.03
2022-07-29T10:57:52.702Z,101786.06
2022-07-29T11:00:30.467Z,101787.63
2022-07-29T11:02:59.127Z,101787.19
2022-07-29T11:08:26.349Z,101789.50
2022-07-29T11:11:22.288Z,101784.91
2022-07-29T11:13:52.499Z,101786.41
2022-07-29T11:16:25.557Z,101781.41
2022-07-29T11:19:14.771Z,101777.50
2022-07-29T11:21:53.715Z,101784.34
2022-07-29T11:24:30.212Z,101786.91
2022-07-29T11:30:06.070Z,101776.25
2022-07-29T11:32:44.901Z,101770.59
2022-07-29T11:35:38.577Z,101784.59
2022-07-29T11:38:31.962Z,101784.78
2022-07-29T11:41:27.900Z,101777.41
2022-07-29T11:43:58.229Z,101781.41
2022-07-29T11:46:51.129Z,101777.81
2022-07-29T11:49:32.506Z,101776.44
2022-07-29T11:52:04.426Z,101775.25
2022-07-29T11:57:22.968Z,101771.06
2022-07-29T12:00:12.292Z,101771.78
2022-07-29T12:02:48.607Z,101778.78
2022-07-29T12:05:22.185Z,101786.03
2022-07-29T12:08:22.805Z,101775.88
2022-07-29T12:10:52.774Z,101775.63
2022-07-29T12:13:22.194Z,101779.75
2022-07-29T12:16:00.050Z,101774.41
2022-07-29T12:18:27.933Z,101779.31
2022-07-29T12:21:05.537Z,101777.56
2022-07-29T12:23:34.885Z,101774.31
2022-07-29T12:26:07.231Z,101774.50
2022-07-29T12:28:39.738Z,101786.13
2022-07-29T12:31:08.210Z,101780.19
2022-07-29T12:33:35.975Z,101782.34
2022-07-29T12:36:10.460Z,101779.59
2022-07-29T12:38:42.212Z,101784.63
2022-07-29T12:41:10.100Z,101791.41
2022-07-29T12:43:37.182Z,101788.50
2022-07-29T12:46:15.822Z,101782.59
2022-07-29T12:48:45.180Z,101789.06
2022-07-29T12:51:15.166Z,101778.66
2022-07-29T12:53:42.351Z,101781.84
2022-07-29T12:59:22.127Z,101777.50
2022-07-29T13:01:52.338Z,101777.16
2022-07-29T13:04:34.196Z,101778.09
2022-07-29T13:07:08.063Z,101777.34
2022-07-29T13:09:41.873Z,101773.47
2022-07-29T13:12:11.594Z,101777.13
2022-07-29T13:14:46.955Z,101771.16
2022-07-29T13:17:23.932Z,101771.97
2022-07-29T13:19:54.219Z,101778.34
2022-07-29T13:22:24.691Z,101778.06
2022-07-29T13:25:03.304Z,101773.75
2022-07-29T13:27:34.747Z,101776.53
2022-07-29T13:30:05.798Z,101775.31
2022-07-29T13:32:37.353Z,101768.09
2022-07-29T13:35:08.197Z,101772.50
2022-07-29T13:37:39.133Z,101772.13
2022-07-29T13:40:08.523Z,101764.72
2022-07-29T13:42:36.192Z,101764.25
2022-07-29T13:45:04.441Z,101763.56
2022-07-29T13:47:32.487Z,101764.94
2022-07-29T13:50:06.102Z,101764.03
2022-07-29T13:52:34.348Z,101770.59
2022-07-29T13:55:01.742Z,101765.66
2022-07-29T13:57:29.275Z,101768.16
2022-07-29T13:59:56.911Z,101764.47
2022-07-29T14:02:26.093Z,101762.63
2022-07-29T14:04:54.760Z,101767.31
2022-07-29T14:07:22.629Z,101760.59
2022-07-29T14:09:49.628Z,101756.19
2022-07-29T14:12:16.611Z,101754.50
2022-07-29T14:14:43.601Z,101762.03
2022-07-29T14:17:10.937Z,101765.78
2022-07-29T14:19:39.074Z,101761.31
2022-07-29T14:22:08.743Z,101761.78
2022-07-29T14:24:37.653Z,101755.44
2022-07-29T14:27:06.171Z,101760.63
2022-07-29T14:29:37.414Z,101763.09
2022-07-29T14:32:08.054Z,101761.91
2022-07-29T14:34:36.443Z,101756.81
2022-07-29T14:37:06.103Z,101760.06
2022-07-29T14:39:34.717Z,101762.22
2022-07-29T14:42:04.239Z,101761.97
2022-07-29T14:44:32.412Z,101756.13
2022-07-29T14:47:00.960Z,101763.16
2022-07-29T14:49:35.716Z,101761.72
2022-07-29T14:52:04.407Z,101755.66
2022-07-29T14:54:31.547Z,101758.75
2022-07-29T14:56:58.922Z,101756.19
2022-07-29T14:59:27.205Z,101762.34
2022-07-29T15:01:54.746Z,101766.41
2022-07-29T15:04:21.777Z,101765.44
2022-07-29T15:06:49.240Z,101765.16
2022-07-29T15:09:16.398Z,101753.06
2022-07-29T15:11:45.679Z,101768.34
2022-07-29T15:14:12.624Z,101765.00
2022-07-29T15:16:43.725Z,101762.09
2022-07-29T15:19:14.141Z,101767.28
2022-07-29T15:21:48.160Z,101769.13
2022-07-29T15:24:17.843Z,101764.47
2022-07-29T15:26:45.507Z,101765.88
2022-07-29T15:29:12.938Z,101766.59
2022-07-29T15:31:39.939Z,101771.28
2022-07-29T15:34:08.445Z,101766.94
2022-07-29T15:36:52.114Z,101766.16
2022-07-29T15:39:20.920Z,101766.41
2022-07-29T15:41:47.975Z,101769.03
2022-07-29T15:44:14.899Z,101767.38
2022-07-29T15:47:07.884Z,101758.03
2022-07-29T15:49:48.500Z,101761.63
2022-07-29T15:52:25.700Z,101749.09
2022-07-29T15:54:55.693Z,101762.00
2022-07-29T15:57:23.291Z,101760.44
2022-07-29T15:59:50.836Z,101758.19
2022-07-29T16:02:17.944Z,101757.88
2022-07-29T16:04:45.005Z,101758.25
2022-07-29T16:07:12.325Z,101758.78
2022-07-29T16:09:41.497Z,101757.66
2022-07-29T16:12:15.249Z,101758.75
2022-07-29T16:14:43.821Z,101759.38
2022-07-29T16:17:14.347Z,101759.13
2022-07-29T16:19:43.485Z,101755.78
2022-07-29T16:22:11.299Z,101760.56
2022-07-29T16:24:38.871Z,101754.13
2022-07-29T16:27:05.890Z,101757.47
2022-07-29T16:29:33.083Z,101755.44
2022-07-29T16:32:01.363Z,101765.97
2022-07-29T16:34:30.848Z,101756.84
2022-07-29T16:36:57.877Z,101755.81
2022-07-29T16:39:24.844Z,101754.13
2022-07-29T16:41:51.797Z,101759.31
2022-07-29T16:44:18.724Z,101759.72
2022-07-29T16:46:46.187Z,101765.81
2022-07-29T16:49:19.419Z,101761.91
2022-07-29T16:51:47.825Z,101759.66
2022-07-29T16:54:15.022Z,101750.91
2022-07-29T16:56:42.256Z,101752.53
2022-07-29T16:59:09.216Z,101752.56
2022-07-29T17:01:39.229Z,101753.72
2022-07-29T17:04:06.232Z,101762.84
2022-07-29T17:06:42.366Z,101759.28
2022-07-29T17:09:11.615Z,101764.50
2022-07-29T17:11:52.609Z,101756.28
2022-07-29T17:14:24.020Z,101762.72
2022-07-29T17:17:02.690Z,101757.22
2022-07-29T17:19:35.554Z,101759.09
2022-07-29T17:22:18.680Z,101768.72
2022-07-29T17:24:47.376Z,101770.44
2022-07-29T17:27:18.260Z,101763.34
2022-07-29T17:29:45.895Z,101768.28
2022-07-29T17:32:13.344Z,101766.69
2022-07-29T17:34:41.920Z,101768.34
2022-07-29T17:37:11.394Z,101757.66
2022-07-29T17:39:41.132Z,101767.00
2022-07-29T17:42:13.761Z,101781.31
2022-07-29T17:44:41.776Z,101777.75
2022-07-29T17:47:15.848Z,101781.03
2022-07-29T17:49:44.778Z,101781.66
2022-07-29T17:52:11.851Z,101788.81
2022-07-29T17:54:38.820Z,101782.75
2022-07-29T17:57:05.783Z,101783.31
2022-07-29T17:59:32.730Z,101789.91
2022-07-29T18:01:59.666Z,101782.75
2022-07-29T18:04:26.739Z,101784.41
2022-07-29T18:06:53.740Z,101787.72
2022-07-29T18:09:22.920Z,101788.25
2022-07-29T18:11:49.839Z,101784.97
2022-07-29T18:14:17.057Z,101788.22
2022-07-29T18:16:44.032Z,101776.69
2022-07-29T18:19:11.038Z,101786.00
2022-07-29T18:21:51.441Z,101785.47
2022-07-29T18:24:27.335Z,101788.72
2022-07-29T18:26:54.425Z,101792.56
2022-07-29T18:29:21.517Z,101791.47
2022-07-29T18:31:51.281Z,101795.84
2022-07-29T18:34:18.213Z,101796.97
2022-07-29T18:36:45.847Z,101796.97
2022-07-29T18:39:20.282Z,101794.75
2022-07-29T18:41:50.512Z,101799.34
2022-07-29T18:44:20.389Z,101802.41
2022-07-29T18:46:49.200Z,101813.81
2022-07-29T18:49:16.262Z,101809.94
2022-07-29T18:51:43.362Z,101808.25
2022-07-29T18:54:10.703Z,101803.59
2022-07-29T18:56:40.729Z,101800.75
2022-07-29T18:59:08.046Z,101808.72
2022-07-29T19:01:35.210Z,101807.56
2022-07-29T19:04:02.253Z,101824.28
2022-07-29T19:06:29.363Z,101812.41
2022-07-29T19:08:56.640Z,101823.03
2022-07-29T19:11:23.835Z,101820.03
2022-07-29T19:13:50.783Z,101827.97
2022-07-29T19:16:18.442Z,101836.41
2022-07-29T19:18:50.774Z,101828.09
2022-07-29T19:21:17.780Z,101829.16
2022-07-29T19:24:01.907Z,101840.09
2022-07-29T19:26:31.910Z,101838.16
2022-07-29T19:28:59.028Z,101837.75
2022-07-29T19:31:26.149Z,101838.94
2022-07-29T19:33:53.192Z,101845.00
2022-07-29T19:36:22.336Z,101852.47
2022-07-29T19:38:49.252Z,101845.59
2022-07-29T19:41:16.980Z,101856.44
2022-07-29T19:43:51.368Z,101864.84
2022-07-29T19:46:28.743Z,101860.19
2022-07-29T19:48:56.484Z,101866.19
2022-07-29T19:51:24.318Z,101871.72
2022-07-29T19:53:54.008Z,101871.28
2022-07-29T19:56:21.008Z,101869.81
2022-07-29T19:58:48.285Z,101881.03
2022-07-29T20:01:16.495Z,101885.50
2022-07-29T20:03:46.596Z,101884.94
2022-07-29T20:06:14.157Z,101892.13
2022-07-29T20:08:41.169Z,101879.63
2022-07-29T20:11:08.175Z,101883.00
2022-07-29T20:13:35.327Z,101884.31
2022-07-29T20:16:05.565Z,101885.59
2022-07-29T20:18:35.326Z,101886.59
2022-07-29T20:21:05.254Z,101884.44
2022-07-29T20:23:33.224Z,101891.44
2022-07-29T20:26:00.612Z,101893.41
2022-07-29T20:28:27.604Z,101884.47
2022-07-29T20:30:54.607Z,101891.34
2022-07-29T20:33:21.556Z,101893.44
2022-07-29T20:35:48.465Z,101894.09
2022-07-29T20:38:18.347Z,101897.16
2022-07-29T20:40:45.761Z,101897.91
2022-07-29T20:43:12.823Z,101895.00
2022-07-29T20:45:39.912Z,101901.75
2022-07-29T20:48:08.421Z,101896.53
2022-07-29T20:50:35.480Z,101892.69
2022-07-29T20:53:02.441Z,101895.56
2022-07-29T20:55:29.420Z,101899.53
2022-07-29T20:57:58.802Z,101904.59
2022-07-29T21:00:25.839Z,101908.06
2022-07-29T21:02:56.010Z,101907.16
2022-07-29T21:05:26.260Z,101904.91
2022-07-29T21:07:56.606Z,101913.59
2022-07-29T21:10:28.303Z,101915.50
2022-07-29T21:12:55.796Z,101912.25
2022-07-29T21:15:22.767Z,101919.78
2022-07-29T21:17:51.884Z,101918.63
2022-07-29T21:20:20.497Z,101927.16
2022-07-29T21:22:47.444Z,101927.63
2022-07-29T21:25:14.523Z,101927.16
2022-07-29T21:28:02.532Z,101925.56
2022-07-29T21:30:29.458Z,101932.44
2022-07-29T21:32:56.498Z,101924.25
2022-07-29T21:36:06.588Z,101923.34
2022-07-29T21:38:10.413Z,101929.81
2022-07-29T21:40:37.618Z,101928.94
2022-07-29T21:43:04.570Z,101927.03
2022-07-29T21:45:31.491Z,101921.59
2022-07-29T21:47:58.434Z,101919.25
2022-07-29T21:50:27.583Z,101910.13
2022-07-29T21:52:54.531Z,101917.59
2022-07-29T21:55:22.804Z,101922.03
2022-07-29T21:57:54.350Z,101918.84
2022-07-29T22:00:22.243Z,101912.41
2022-07-29T22:02:49.260Z,101907.19
2022-07-29T22:05:16.225Z,101906.09
2022-07-29T22:07:54.487Z,101907.75
2022-07-29T22:10:24.886Z,101906.09
2022-07-29T22:12:55.085Z,101915.59
2022-07-29T22:15:22.488Z,101906.34
2022-07-29T22:17:49.661Z,101904.69
2022-07-29T22:20:16.821Z,101898.97
2022-07-29T22:22:43.743Z,101898.38
2022-07-29T22:25:11.347Z,101905.25
2022-07-29T22:27:39.168Z,101903.38
2022-07-29T22:30:07.427Z,101906.47
2022-07-29T22:32:34.738Z,101904.47
2022-07-29T22:35:01.723Z,101907.66
2022-07-29T22:37:28.942Z,101909.09
2022-07-29T22:39:55.944Z,101905.56
2022-07-29T22:42:22.944Z,101914.31
2022-07-29T22:44:49.928Z,101909.84
2022-07-29T22:47:16.887Z,101908.41
2022-07-29T22:49:43.829Z,101908.53
2022-07-29T22:52:10.769Z,101911.13
2022-07-29T22:54:38.340Z,101907.16
2022-07-29T22:57:06.192Z,101912.38
2022-07-29T22:59:33.192Z,101911.41
2022-07-29T23:02:00.231Z,101922.69
2022-07-29T23:04:27.208Z,101924.69
2022-07-29T23:06:54.256Z,101913.91
2022-07-29T23:09:21.208Z,101914.16
2022-07-29T23:11:48.189Z,101911.66
2022-07-29T23:14:15.454Z,101915.94
2022-07-29T23:16:42.414Z,101916.63
2022-07-29T23:19:09.391Z,101916.28
2022-07-29T23:21:37.372Z,101921.63
2022-07-29T23:24:04.552Z,101908.44
2022-07-29T23:26:31.768Z,101916.59
2022-07-29T23:28:58.757Z,101909.63
2022-07-29T23:31:25.754Z,101913.63
2022-07-29T23:33:52.720Z,101912.44
2022-07-29T23:36:20.856Z,101909.84
2022-07-29T23:38:48.784Z,101912.19
2022-07-29T23:41:16.272Z,101907.56
2022-07-29T23:43:43.269Z,101909.56
2022-07-29T23:46:10.233Z,101922.38
2022-07-29T23:48:37.317Z,101923.19
2022-07-29T23:51:04.460Z,101921.25
2022-07-29T23:53:31.497Z,101915.44
2022-07-29T23:55:58.470Z,101917.84
2022-07-29T23:58:25.387Z,101918.53
